Time;durP1;ratioP1;P1;durP2;ratioP2;P2;SDS_P1;SDS_P2;PMS_P1;PMS_P2;Temp;Humidity;BMP_temperature;BMP_pressure;BME280_temperature;BME280_humidity;BME280_pressure;Samples;Min_cycle;Max_cycle;Signal;HPM_P1;HPM_P2
2022/09/05 00:00:06;;;;;;;;;;;;;;;14.95;67.59;99989.18;1582468;88;20129;-66
2022/09/05 00:03:03;;;;;;;;;;;;;;;14.91;67.95;99993.26;1585255;88;20480;-66
2022/09/05 00:05:47;;;;;;;;;;;;;;;14.88;68.18;99994.97;1585869;88;21160;-66
2022/09/05 00:08:26;;;;;;;;;;;;;;;14.83;68.35;99990.98;1583404;89;20107;-66
2022/09/05 00:10:59;;;;;;;;;;;;;;;14.80;68.62;99990.53;1584654;89;20152;-67
2022/09/05 00:13:29;;;;;;;;;;;;;;;14.76;68.79;99991.40;1585792;89;20096;-66
2022/09/05 00:16:14;;;;;;;;;;;;;;;14.74;68.76;99997.45;1584726;89;20215;-66
2022/09/05 00:18:54;;;;;;;;;;;;;;;14.72;68.73;99998.16;1611855;87;21790;-64
2022/09/05 00:21:27;;;;;;;;;;;;;;;14.71;68.70;100000.50;1615151;87;20202;-65
2022/09/05 00:24:33;;;;;;;;;;;;;;;14.74;68.50;99996.62;1611210;87;20208;-66
2022/09/05 00:27:06;;;;;;;;;;;;;;;14.76;68.28;99991.91;1613896;87;20105;-65
2022/09/05 00:30:10;;;;;;;;;;;;;;;14.79;68.34;99994.22;1613763;87;20103;-66
2022/09/05 00:32:57;;;;;;;;;;;;;;;14.82;68.05;99993.85;1610716;87;21851;-66
2022/09/05 00:35:50;;;;;;;;;;;;;;;14.84;68.17;99991.81;1610131;87;20132;-65
2022/09/05 00:38:24;;;;;;;;;;;;;;;14.79;68.50;99990.20;1612816;87;20136;-67
2022/09/05 00:40:55;;;;;;;;;;;;;;;14.76;68.71;99989.22;1613645;87;20415;-66
2022/09/05 00:43:27;;;;;;;;;;;;;;;14.77;68.64;99980.19;1613145;87;20155;-66
2022/09/05 00:46:07;;;;;;;;;;;;;;;14.80;68.61;99983.84;1609144;87;21848;-67
2022/09/05 00:48:37;;;;;;;;;;;;;;;14.78;68.76;99980.52;1612613;87;20128;-66
2022/09/05 00:51:33;;;;;;;;;;;;;;;14.74;69.16;99977.87;1610497;87;20127;-67
2022/09/05 00:54:24;;;;;;;;;;;;;;;14.71;69.45;99979.08;1611539;87;20146;-66
2022/09/05 00:57:11;;;;;;;;;;;;;;;14.67;69.63;99975.63;1612713;87;20169;-67
2022/09/05 01:00:08;;;;;;;;;;;;;;;14.64;69.77;99968.78;1609380;87;21145;-66
2022/09/05 01:02:41;;;;;;;;;;;;;;;14.61;70.03;99970.99;1600882;87;20121;-66
2022/09/05 01:05:37;;;;;;;;;;;;;;;14.57;70.22;99974.53;1599345;88;20228;-67
2022/09/05 01:08:13;;;;;;;;;;;;;;;14.52;70.38;99969.44;1598335;88;20104;-67
2022/09/05 01:11:06;;;;;;;;;;;;;;;14.45;70.67;99972.00;1601006;88;20117;-65
2022/09/05 01:14:10;;;;;;;;;;;;;;;14.43;70.86;99972.70;1599904;88;21199;-65
2022/09/05 01:17:14;;;;;;;;;;;;;;;14.39;70.92;99970.04;1596363;88;20612;-65
2022/09/05 01:19:53;;;;;;;;;;;;;;;14.37;70.87;99968.06;1598289;88;20432;-66
2022/09/05 01:22:38;;;;;;;;;;;;;;;14.35;70.87;99964.74;1576699;88;20105;-66
2022/09/05 01:25:20;;;;;;;;;;;;;;;14.37;71.00;99964.55;1599088;88;20455;-67
2022/09/05 01:27:57;;;;;;;;;;;;;;;14.36;71.05;99969.09;1599680;88;20501;-67
2022/09/05 01:30:45;;;;;;;;;;;;;;;14.35;71.27;99972.77;1599201;88;20101;-67
2022/09/05 01:33:39;;;;;;;;;;;;;;;14.36;71.32;99970.44;1600496;88;20101;-68
2022/09/05 01:36:32;;;;;;;;;;;;;;;14.36;71.45;99971.77;1599459;88;20255;-66
2022/09/05 01:39:14;;;;;;;;;;;;;;;14.34;71.75;99975.11;1586003;88;20174;-66
2022/09/05 01:41:53;;;;;;;;;;;;;;;14.36;71.81;99977.13;1597323;88;22092;-66
2022/09/05 01:44:38;;;;;;;;;;;;;;;14.38;71.93;99978.27;1599493;88;20112;-66
2022/09/05 01:47:42;;;;;;;;;;;;;;;14.39;72.08;99975.39;1598111;88;20137;-66
2022/09/05 01:50:19;;;;;;;;;;;;;;;14.41;71.97;99982.77;1596387;88;20181;-67
2022/09/05 01:53:01;;;;;;;;;;;;;;;14.41;71.98;99983.27;1600229;88;20448;-67
2022/09/05 01:55:54;;;;;;;;;;;;;;;14.38;71.91;99979.61;1596593;88;21825;-67
2022/09/05 01:58:50;;;;;;;;;;;;;;;14.20;71.56;99973.23;1597238;88;20157;-66
2022/09/05 02:01:20;;;;;;;;;;;;;;;14.04;72.07;99969.36;1602886;87;20172;-66
2022/09/05 02:04:17;;;;;;;;;;;;;;;14.05;72.24;99972.37;1610462;87;20195;-66
2022/09/05 02:07:24;;;;;;;;;;;;;;;14.04;72.22;99971.53;1610037;87;20111;-66
2022/09/05 02:10:12;;;;;;;;;;;;;;;14.01;72.29;99967.88;1584253;89;21904;-65
2022/09/05 02:12:52;;;;;;;;;;;;;;;14.03;72.38;99962.33;1590057;89;20141;-66
2022/09/05 02:15:25;;;;;;;;;;;;;;;14.08;72.18;99962.62;1524080;92;20184;-67
2022/09/05 02:17:54;;;;;;;;;;;;;;;14.12;72.07;99960.77;1614036;87;20092;-66
2022/09/05 02:20:30;;;;;;;;;;;;;;;14.20;71.97;99959.84;1610622;87;20482;-67
2022/09/05 02:23:20;;;;;;;;;;;;;;;14.24;71.98;99951.77;1613283;87;21139;-65
2022/09/05 02:26:18;;;;;;;;;;;;;;;14.29;71.92;99949.38;1598584;87;20167;-66
2022/09/05 02:28:57;;;;;;;;;;;;;;;14.33;71.89;99949.38;1611107;87;20461;-67
2022/09/05 02:31:42;;;;;;;;;;;;;;;14.34;71.74;99949.69;1613512;87;20150;-66
2022/09/05 02:34:12;;;;;;;;;;;;;;;14.37;71.75;99947.15;1614353;87;20490;-66
2022/09/05 02:36:51;;;;;;;;;;;;;;;14.35;71.92;99943.33;1611805;87;21289;-67
2022/09/05 02:39:27;;;;;;;;;;;;;;;14.36;72.00;99947.69;1612931;87;20108;-66
2022/09/05 02:42:06;;;;;;;;;;;;;;;14.36;72.13;99952.20;1611336;87;20514;-67
2022/09/05 02:44:36;;;;;;;;;;;;;;;14.38;72.17;99946.15;1612020;87;20125;-66
2022/09/05 02:47:09;;;;;;;;;;;;;;;14.41;72.07;99949.80;1612646;87;20105;-67
2022/09/05 02:50:01;;;;;;;;;;;;;;;14.42;72.11;99948.27;1611154;87;21238;-67
2022/09/05 02:52:29;;;;;;;;;;;;;;;14.46;72.06;99947.41;1612304;87;20473;-67
2022/09/05 02:54:56;;;;;;;;;;;;;;;14.44;72.17;99946.27;1612904;87;20438;-66
2022/09/05 02:57:38;;;;;;;;;;;;;;;14.45;72.30;99949.24;1614378;87;20158;-67
2022/09/05 03:00:12;;;;;;;;;;;;;;;14.46;72.31;99942.89;1613123;87;20130;-66
2022/09/05 03:03:13;;;;;;;;;;;;;;;14.48;72.42;99948.88;1602834;87;20605;-67
2022/09/05 03:05:49;;;;;;;;;;;;;;;14.49;72.48;99944.36;1600113;88;20182;-65
2022/09/05 03:08:32;;;;;;;;;;;;;;;14.47;72.61;99946.40;1592941;88;20235;-66
2022/09/05 03:11:28;;;;;;;;;;;;;;;14.48;72.63;99945.37;1597959;88;20122;-66
2022/09/05 03:14:05;;;;;;;;;;;;;;;14.42;72.51;99937.56;1600502;88;20237;-67
2022/09/05 03:16:52;;;;;;;;;;;;;;;14.34;72.59;99953.70;1598296;88;22138;-67
2022/09/05 03:19:31;;;;;;;;;;;;;;;14.32;72.80;99949.05;1599413;88;20109;-65
2022/09/05 03:22:17;;;;;;;;;;;;;;;14.33;72.78;99949.88;1598165;88;20113;-66
2022/09/05 03:24:56;;;;;;;;;;;;;;;14.33;72.74;99954.73;1598094;88;20564;-66
2022/09/05 03:27:28;;;;;;;;;;;;;;;14.32;72.81;99957.08;1600840;88;20129;-65
2022/09/05 03:30:04;;;;;;;;;;;;;;;14.34;72.85;99993.04;1602457;88;21187;-65
2022/09/05 03:33:00;;;;;;;;;;;;;;;14.36;72.82;99984.31;1577891;88;20081;-66
2022/09/05 03:35:48;;;;;;;;;;;;;;;14.41;72.69;99993.47;1598161;88;20166;-66
2022/09/05 03:38:42;;;;;;;;;;;;;;;14.44;72.68;100003.81;1600211;88;20130;-66
2022/09/05 03:41:25;;;;;;;;;;;;;;;14.52;72.15;100002.90;1600098;88;20379;-66
2022/09/05 03:44:03;;;;;;;;;;;;;;;14.60;71.70;100004.96;1595202;88;21195;-66
2022/09/05 03:46:51;;;;;;;;;;;;;;;14.68;71.50;100007.55;1598130;88;20514;-66
2022/09/05 03:49:55;;;;;;;;;;;;;;;14.74;71.21;99996.12;1598232;88;20430;-66
2022/09/05 03:52:57;;;;;;;;;;;;;;;14.81;71.86;99990.84;1598761;88;20621;-67
2022/09/05 03:55:47;;;;;;;;;;;;;;;14.82;71.43;99983.14;1598469;88;20169;-66
2022/09/05 03:58:20;;;;;;;;;;;;;;;14.82;71.21;99981.30;1597018;88;21203;-66
2022/09/05 04:01:02;;;;;;;;;;;;;;;14.82;71.09;99975.94;1599801;88;20525;-65
2022/09/05 04:03:44;;;;;;;;;;;;;;;14.83;70.98;99974.91;1596864;88;20426;-66
2022/09/05 04:06:17;;;;;;;;;;;;;;;14.86;70.90;99986.29;1592915;88;20142;-66
2022/09/05 04:08:55;;;;;;;;;;;;;;;14.88;70.67;99986.42;1598879;88;20427;-66
2022/09/05 04:11:26;;;;;;;;;;;;;;;14.90;70.58;99983.05;1598067;88;21287;-66
2022/09/05 04:14:01;;;;;;;;;;;;;;;14.90;70.82;99980.88;1599928;88;20560;-67
2022/09/05 04:16:32;;;;;;;;;;;;;;;14.88;70.75;99976.22;1595716;88;20447;-65
2022/09/05 04:19:25;;;;;;;;;;;;;;;14.86;70.47;99983.61;1597395;88;20157;-67
2022/09/05 04:22:10;;;;;;;;;;;;;;;14.83;70.42;99993.66;1599800;88;20181;-67
2022/09/05 04:25:07;;;;;;;;;;;;;;;14.81;70.56;99980.96;1600554;88;21829;-66
2022/09/05 04:27:46;;;;;;;;;;;;;;;14.79;70.56;99985.68;1598399;88;20490;-66
2022/09/05 04:30:36;;;;;;;;;;;;;;;14.82;70.71;99985.31;1593503;88;20490;-67
2022/09/05 04:33:06;;;;;;;;;;;;;;;14.85;70.78;99985.45;1596955;88;20103;-68
2022/09/05 04:35:45;;;;;;;;;;;;;;;14.84;70.72;99991.31;1598866;88;20231;-65
2022/09/05 04:38:14;;;;;;;;;;;;;;;14.83;71.01;99998.20;1599723;88;21305;-66
2022/09/05 04:40:44;;;;;;;;;;;;;;;14.82;71.49;99997.37;1599225;88;20099;-67
2022/09/05 04:43:20;;;;;;;;;;;;;;;14.82;72.02;99994.69;1601516;88;20190;-67
2022/09/05 04:45:52;;;;;;;;;;;;;;;14.81;72.23;99997.53;1596827;88;20231;-67
2022/09/05 04:48:21;;;;;;;;;;;;;;;14.76;72.42;99999.94;1601349;88;20116;-66
2022/09/05 04:51:06;;;;;;;;;;;;;;;14.73;72.57;100002.48;1598873;88;21160;-66
2022/09/05 04:53:59;;;;;;;;;;;;;;;14.67;72.18;100007.75;1598848;88;20097;-66
2022/09/05 04:56:28;;;;;;;;;;;;;;;14.63;72.69;100012.63;1597137;88;20093;-66
2022/09/05 04:59:15;;;;;;;;;;;;;;;14.62;72.86;100009.66;1600782;88;20141;-67
2022/09/05 05:01:46;;;;;;;;;;;;;;;14.62;73.29;100020.36;1597589;88;20113;-66
2022/09/05 05:04:15;;;;;;;;;;;;;;;14.65;73.45;100022.64;1596477;88;21136;-66
2022/09/05 05:06:47;;;;;;;;;;;;;;;14.76;73.63;100034.75;1597919;88;20176;-66
2022/09/05 05:09:30;;;;;;;;;;;;;;;14.88;73.82;100039.16;1602467;88;20107;-67
2022/09/05 05:12:02;;;;;;;;;;;;;;;15.09;73.65;100033.39;1594692;88;20140;-67
2022/09/05 05:14:42;;;;;;;;;;;;;;;15.39;73.58;100034.17;1597268;88;20247;-65
2022/09/05 05:17:15;;;;;;;;;;;;;;;16.13;73.59;100030.77;1596899;88;22392;-65
2022/09/05 05:19:45;;;;;;;;;;;;;;;17.10;71.39;100032.56;1596186;88;20155;-66
2022/09/05 05:22:13;;;;;;;;;;;;;;;17.92;68.23;100019.83;1602190;88;20466;-66
2022/09/05 05:24:47;;;;;;;;;;;;;;;18.26;66.00;100025.56;1600173;88;20553;-68
2022/09/05 05:27:26;;;;;;;;;;;;;;;18.97;64.51;100021.17;1596329;88;20093;-68
2022/09/05 05:30:03;;;;;;;;;;;;;;;20.22;60.70;100017.34;1594975;88;21174;-68
2022/09/05 05:32:34;;;;;;;;;;;;;;;21.61;56.24;100021.67;1598274;88;20112;-67
2022/09/05 05:35:03;;;;;;;;;;;;;;;23.00;52.18;100011.11;1599662;88;20160;-66
2022/09/05 05:37:54;;;;;;;;;;;;;;;24.24;48.29;100007.11;1580808;88;20133;-66
2022/09/05 05:40:24;;;;;;;;;;;;;;;25.37;44.96;100007.95;1597617;88;20121;-69
2022/09/05 05:42:51;;;;;;;;;;;;;;;26.59;41.94;100000.49;1596212;88;21200;-66
2022/09/05 05:45:20;;;;;;;;;;;;;;;27.35;39.06;100005.87;1599933;88;20274;-68
2022/09/05 05:47:50;;;;;;;;;;;;;;;27.87;37.61;100002.48;1595792;88;20157;-68
2022/09/05 05:50:24;;;;;;;;;;;;;;;28.47;36.09;100013.24;1595761;88;20181;-69
2022/09/05 05:53:09;;;;;;;;;;;;;;;29.00;35.01;100008.52;1594895;88;20140;-67
2022/09/05 05:55:58;;;;;;;;;;;;;;;29.72;33.54;100014.02;1602310;88;22128;-70
2022/09/05 05:59:03;;;;;;;;;;;;;;;30.31;32.10;100010.62;1597325;88;20138;-70
2022/09/05 06:01:58;;;;;;;;;;;;;;;30.79;30.93;100014.89;1597579;88;20153;-69
2022/09/05 06:04:51;;;;;;;;;;;;;;;31.10;30.06;100022.52;1601678;87;20141;-67
2022/09/05 06:07:40;;;;;;;;;;;;;;;31.44;29.40;100030.67;1589942;88;20189;-69
2022/09/05 06:10:22;;;;;;;;;;;;;;;31.94;28.68;100033.87;1598907;88;22126;-68
2022/09/05 06:13:31;;;;;;;;;;;;;;;32.56;27.94;100021.09;1604670;88;20109;-67
2022/09/05 06:16:15;;;;;;;;;;;;;;;33.26;27.09;100026.42;1594377;88;20453;-69
2022/09/05 06:19:11;;;;;;;;;;;;;;;34.01;25.53;100026.17;1599508;88;20149;-68
2022/09/05 06:22:15;;;;;;;;;;;;;;;34.28;24.77;100029.44;1600210;88;20140;-69
2022/09/05 06:25:20;;;;;;;;;;;;;;;34.52;24.17;100033.26;1597844;88;21196;-67
2022/09/05 06:28:05;;;;;;;;;;;;;;;34.73;23.58;100029.67;1598958;88;20454;-69
2022/09/05 06:30:35;;;;;;;;;;;;;;;34.83;23.12;100037.45;1601427;88;20128;-67
2022/09/05 06:33:37;;;;;;;;;;;;;;;34.57;23.31;100045.59;1597897;88;20155;-67
2022/09/05 06:36:28;;;;;;;;;;;;;;;33.31;24.35;100046.99;1599273;88;20178;-66
2022/09/05 06:39:13;;;;;;;;;;;;;;;32.60;25.31;100051.03;1603005;88;21158;-68
2022/09/05 06:42:15;;;;;;;;;;;;;;;32.39;25.68;100056.58;1600016;88;20113;-71
2022/09/05 06:45:08;;;;;;;;;;;;;;;32.72;25.57;100056.87;1598273;88;20165;-68
2022/09/05 06:47:35;;;;;;;;;;;;;;;32.13;25.78;100065.80;1601248;88;20129;-67
2022/09/05 06:50:13;;;;;;;;;;;;;;;31.15;26.29;100076.08;1598021;88;20462;-67
2022/09/05 06:53:09;;;;;;;;;;;;;;;31.52;26.17;100075.97;1597719;88;21196;-67
2022/09/05 06:55:58;;;;;;;;;;;;;;;32.52;25.21;100071.52;1598883;88;20135;-69
2022/09/05 06:58:43;;;;;;;;;;;;;;;33.58;24.00;100066.89;1599122;88;20101;-67
2022/09/05 07:01:10;;;;;;;;;;;;;;;34.90;21.83;100069.59;1599092;88;20153;-67
2022/09/05 07:04:01;;;;;;;;;;;;;;;35.70;19.84;100068.75;1592803;88;21282;-67
2022/09/05 07:06:51;;;;;;;;;;;;;;;36.21;18.88;100071.37;1599664;88;21218;-66
2022/09/05 07:09:25;;;;;;;;;;;;;;;36.70;17.96;100071.44;1598758;88;20187;-67
2022/09/05 07:12:31;;;;;;;;;;;;;;;37.32;17.74;100075.92;1599097;88;20431;-67
2022/09/05 07:15:05;;;;;;;;;;;;;;;37.77;16.74;100078.41;1579021;89;20464;-70
2022/09/05 07:17:42;;;;;;;;;;;;;;;38.10;16.46;100077.95;1576207;89;20496;-67
2022/09/05 07:20:24;;;;;;;;;;;;;;;38.23;16.48;100079.66;1567285;88;21285;-69
2022/09/05 07:22:58;;;;;;;;;;;;;;;38.44;15.86;100086.61;1601414;88;20123;-68
2022/09/05 07:25:28;;;;;;;;;;;;;;;38.20;15.88;100080.89;1600447;88;20109;-67
2022/09/05 07:27:59;;;;;;;;;;;;;;;38.10;15.76;100084.08;1599913;88;20449;-68
2022/09/05 07:30:25;;;;;;;;;;;;;;;38.14;15.86;100080.88;1598741;88;20129;-69
2022/09/05 07:32:53;;;;;;;;;;;;;;;37.78;16.06;100076.45;1600552;88;20578;-67
2022/09/05 07:35:31;;;;;;;;;;;;;;;37.64;15.74;100081.68;1596684;88;20438;-70
2022/09/05 07:38:12;;;;;;;;;;;;;;;37.56;15.90;100083.11;1598530;88;20108;-65
2022/09/05 07:40:38;;;;;;;;;;;;;;;37.36;16.13;100086.04;1578351;88;20129;-67
2022/09/05 07:43:14;;;;;;;;;;;;;;;37.47;15.70;100085.91;1598593;88;20427;-65
2022/09/05 07:46:02;;;;;;;;;;;;;;;37.37;15.64;100087.65;1599015;88;21281;-66
2022/09/05 07:48:30;;;;;;;;;;;;;;;37.33;15.48;100088.09;1568294;88;20183;-67
2022/09/05 07:50:59;;;;;;;;;;;;;;;37.57;14.95;100089.69;1596479;88;20155;-66
2022/09/05 07:53:25;;;;;;;;;;;;;;;37.73;14.91;100092.14;1598727;88;20152;-66
2022/09/05 07:55:57;;;;;;;;;;;;;;;38.06;14.82;100089.52;1601708;88;20109;-67
2022/09/05 07:58:30;;;;;;;;;;;;;;;38.65;14.51;100081.84;1598797;88;21179;-67
2022/09/05 08:00:57;;;;;;;;;;;;;;;39.16;14.02;100083.86;1598134;88;20114;-66
2022/09/05 08:03:27;;;;;;;;;;;;;;;39.34;13.43;100090.29;1605557;87;20180;-67
2022/09/05 08:05:56;;;;;;;;;;;;;;;39.50;12.74;100089.02;1613846;87;20080;-67
2022/09/05 08:08:31;;;;;;;;;;;;;;;39.60;12.72;100088.55;1612539;87;20080;-67
2022/09/05 08:11:06;;;;;;;;;;;;;;;39.96;12.44;100094.11;1613876;87;21121;-66
2022/09/05 08:13:42;;;;;;;;;;;;;;;40.38;12.22;100089.61;1611914;87;20137;-66
2022/09/05 08:16:10;;;;;;;;;;;;;;;41.06;11.86;100085.61;1610777;87;20164;-66
2022/09/05 08:18:45;;;;;;;;;;;;;;;41.48;11.04;100086.48;1612359;87;20108;-67
2022/09/05 08:21:47;;;;;;;;;;;;;;;41.54;10.85;100082.22;1616121;87;20157;-66
2022/09/05 08:24:25;;;;;;;;;;;;;;;41.56;11.02;100079.30;1612849;87;21235;-67
2022/09/05 08:27:10;;;;;;;;;;;;;;;42.02;10.81;100083.78;1612916;87;20437;-66
2022/09/05 08:29:41;;;;;;;;;;;;;;;42.22;10.55;100086.84;1615042;87;20122;-66
2022/09/05 08:32:15;;;;;;;;;;;;;;;42.30;10.53;100081.63;1611977;87;20120;-66
2022/09/05 08:35:05;;;;;;;;;;;;;;;42.56;10.07;100080.98;1612059;87;20146;-67
2022/09/05 08:37:31;;;;;;;;;;;;;;;42.30;10.33;100083.02;1613453;87;21230;-66
2022/09/05 08:40:01;;;;;;;;;;;;;;;41.83;10.78;100069.19;1612199;87;20160;-67
2022/09/05 08:42:56;;;;;;;;;;;;;;;41.07;10.68;100083.02;1612736;87;20164;-67
2022/09/05 08:45:25;;;;;;;;;;;;;;;40.34;11.19;100090.89;1613006;87;20462;-67
2022/09/05 08:48:23;;;;;;;;;;;;;;;40.46;11.23;100084.47;1611789;87;20124;-67
2022/09/05 08:50:53;;;;;;;;;;;;;;;40.50;11.31;100084.00;1611747;87;21136;-66
2022/09/05 08:53:29;;;;;;;;;;;;;;;41.22;11.09;100078.64;1608955;87;20129;-66
2022/09/05 08:55:59;;;;;;;;;;;;;;;41.82;10.76;100075.97;1610424;87;20112;-66
2022/09/05 08:58:54;;;;;;;;;;;;;;;42.14;10.59;100076.68;1614898;87;20084;-67
2022/09/05 09:01:30;;;;;;;;;;;;;;;42.65;10.28;100071.20;1613135;87;20156;-67
2022/09/05 09:04:09;;;;;;;;;;;;;;;43.16;9.89;100077.34;1609388;87;21256;-67
2022/09/05 09:06:54;;;;;;;;;;;;;;;43.19;9.78;100071.00;1598845;88;20129;-69
2022/09/05 09:09:33;;;;;;;;;;;;;;;41.92;10.26;100075.39;1579578;88;20554;-67
2022/09/05 09:12:13;;;;;;;;;;;;;;;39.96;11.44;100081.57;1598723;88;20113;-67
2022/09/05 09:14:51;;;;;;;;;;;;;;;37.93;12.68;100076.71;1596538;88;20431;-67
2022/09/05 09:17:44;;;;;;;;;;;;;;;36.27;14.04;100081.95;1600805;88;20104;-67
2022/09/05 09:20:32;;;;;;;;;;;;;;;35.64;14.66;100072.01;1600539;88;37532;-66
2022/09/05 09:23:04;;;;;;;;;;;;;;;36.62;14.25;100062.57;1598059;88;20105;-67
2022/09/05 09:25:35;;;;;;;;;;;;;;;38.34;13.27;100062.59;1597956;88;20427;-69
2022/09/05 09:28:07;;;;;;;;;;;;;;;39.55;12.56;100065.70;1600557;88;20129;-66
2022/09/05 09:30:35;;;;;;;;;;;;;;;40.48;11.90;100057.08;1599722;88;21172;-68
2022/09/05 09:33:02;;;;;;;;;;;;;;;40.60;11.57;100048.06;1600538;88;20095;-66
2022/09/05 09:35:51;;;;;;;;;;;;;;;39.75;11.75;100061.98;1598889;88;20118;-66
2022/09/05 09:38:27;;;;;;;;;;;;;;;39.79;11.32;100058.75;1598556;88;20148;-70
2022/09/05 09:41:18;;;;;;;;;;;;;;;40.39;10.72;100052.19;1599301;88;20097;-68
2022/09/05 09:43:48;;;;;;;;;;;;;;;41.09;10.16;100051.98;1599525;88;21297;-69
2022/09/05 09:46:33;;;;;;;;;;;;;;;41.38;9.96;100054.33;1598435;88;20162;-69
2022/09/05 09:49:16;;;;;;;;;;;;;;;41.66;9.70;100046.65;1600476;88;20090;-70
2022/09/05 09:52:20;;;;;;;;;;;;;;;41.88;9.58;100047.95;1602041;88;20150;-70
2022/09/05 09:55:24;;;;;;;;;;;;;;;41.88;9.51;100045.16;1599848;88;20125;-69
2022/09/05 09:58:09;;;;;;;;;;;;;;;41.69;9.72;100043.10;1599593;88;21186;-66
2022/09/05 10:00:45;;;;;;;;;;;;;;;41.65;10.00;100042.22;1600352;88;21618;-68
2022/09/05 10:03:27;;;;;;;;;;;;;;;41.15;10.14;100045.77;1598493;88;20113;-68
2022/09/05 10:06:14;;;;;;;;;;;;;;;40.31;10.52;100043.42;1626298;87;20155;-67
2022/09/05 10:09:06;;;;;;;;;;;;;;;40.04;10.50;100045.84;1624425;87;20176;-69
2022/09/05 10:11:52;;;;;;;;;;;;;;;40.19;10.55;100039.27;1622332;87;21126;-67
2022/09/05 10:14:37;;;;;;;;;;;;;;;40.12;10.60;100039.08;1624464;87;20107;-67
2022/09/05 10:17:23;;;;;;;;;;;;;;;40.06;10.72;100032.94;1624348;87;20177;-67
2022/09/05 10:19:55;;;;;;;;;;;;;;;40.12;10.91;100030.72;1624034;87;20121;-67
2022/09/05 10:22:28;;;;;;;;;;;;;;;40.32;10.92;100032.48;1624739;87;20173;-67
2022/09/05 10:25:01;;;;;;;;;;;;;;;40.59;10.68;100031.13;1623115;87;21275;-66
2022/09/05 10:27:51;;;;;;;;;;;;;;;40.82;10.38;100026.33;1623810;87;20434;-66
2022/09/05 10:30:28;;;;;;;;;;;;;;;40.94;10.50;100027.08;1623048;87;20128;-67
2022/09/05 10:33:08;;;;;;;;;;;;;;;40.99;10.59;100028.20;1626006;87;20121;-66
2022/09/05 10:35:37;;;;;;;;;;;;;;;39.93;10.83;100034.10;1622861;87;20129;-67
2022/09/05 10:38:22;;;;;;;;;;;;;;;38.04;11.92;100034.08;1626756;87;21150;-67
2022/09/05 10:40:52;;;;;;;;;;;;;;;37.16;12.67;100028.52;1625448;87;20121;-67
2022/09/05 10:43:28;;;;;;;;;;;;;;;36.19;13.28;100033.52;1624604;87;20128;-67
2022/09/05 10:46:01;;;;;;;;;;;;;;;34.94;14.26;100040.99;1623305;87;20084;-65
2022/09/05 10:48:31;;;;;;;;;;;;;;;33.45;15.33;100039.55;1627614;87;20159;-66
2022/09/05 10:51:03;;;;;;;;;;;;;;;33.32;15.87;100033.47;1623577;87;21801;-66
2022/09/05 10:53:45;;;;;;;;;;;;;;;33.95;15.74;100032.10;1623968;87;20130;-66
2022/09/05 10:56:13;;;;;;;;;;;;;;;35.01;15.12;100028.94;1623996;87;20109;-67
2022/09/05 10:58:49;;;;;;;;;;;;;;;35.79;14.31;100023.11;1626282;87;20133;-67
2022/09/05 11:01:38;;;;;;;;;;;;;;;35.34;14.22;100025.26;1624315;87;20207;-67
2022/09/05 11:04:24;;;;;;;;;;;;;;;35.57;14.03;100021.28;1624186;87;21200;-66
2022/09/05 11:06:53;;;;;;;;;;;;;;;36.18;13.46;100017.46;1609143;87;20158;-66
2022/09/05 11:09:23;;;;;;;;;;;;;;;36.48;12.97;100012.88;1612509;87;20149;-66
2022/09/05 11:12:21;;;;;;;;;;;;;;;36.59;12.60;100011.95;1613405;87;20129;-67
2022/09/05 11:14:53;;;;;;;;;;;;;;;36.56;12.41;100007.89;1611232;87;20162;-66
2022/09/05 11:17:40;;;;;;;;;;;;;;;35.67;12.88;100012.67;1612601;87;21177;-67
2022/09/05 11:20:25;;;;;;;;;;;;;;;34.77;13.28;100011.90;1613041;87;20186;-67
2022/09/05 11:22:55;;;;;;;;;;;;;;;33.65;13.79;100019.00;1615008;87;20378;-66
2022/09/05 11:25:23;;;;;;;;;;;;;;;32.53;14.72;100018.95;1612786;87;20129;-66
2022/09/05 11:27:51;;;;;;;;;;;;;;;31.66;15.43;100017.20;1616466;87;20166;-66
2022/09/05 11:30:21;;;;;;;;;;;;;;;30.84;16.15;100020.33;1612516;87;21180;-66
2022/09/05 11:33:14;;;;;;;;;;;;;;;30.17;16.92;100023.88;1612454;87;20160;-67
2022/09/05 11:35:43;;;;;;;;;;;;;;;29.54;17.15;100024.27;1613241;87;20104;-66
2022/09/05 11:38:25;;;;;;;;;;;;;;;28.81;17.55;100023.89;1614275;87;20124;-67
2022/09/05 11:41:24;;;;;;;;;;;;;;;28.30;17.91;100023.08;1613671;87;20104;-67
2022/09/05 11:44:11;;;;;;;;;;;;;;;27.95;18.65;100025.19;1611890;87;21138;-65
2022/09/05 11:46:53;;;;;;;;;;;;;;;27.61;18.97;100023.20;1614089;87;20435;-67
2022/09/05 11:49:45;;;;;;;;;;;;;;;27.28;19.32;100025.22;1612064;87;20120;-67
2022/09/05 11:52:30;;;;;;;;;;;;;;;27.10;19.60;100022.12;1613745;87;20439;-66
2022/09/05 11:55:18;;;;;;;;;;;;;;;26.99;19.42;100022.60;1614336;87;20108;-68
2022/09/05 11:58:14;;;;;;;;;;;;;;;26.84;19.57;100019.78;1610660;87;21190;-67
2022/09/05 12:00:58;;;;;;;;;;;;;;;26.69;20.04;100014.20;1612491;87;20118;-67
2022/09/05 12:03:44;;;;;;;;;;;;;;;26.45;20.30;100013.75;1611233;87;20167;-69
2022/09/05 12:06:23;;;;;;;;;;;;;;;26.26;20.79;100012.48;1600963;87;20369;-67
2022/09/05 12:08:55;;;;;;;;;;;;;;;26.09;20.87;100007.68;1596835;88;20113;-69
2022/09/05 12:11:45;;;;;;;;;;;;;;;26.00;21.32;100001.86;1601439;88;21835;-67
2022/09/05 12:14:32;;;;;;;;;;;;;;;25.92;21.28;100002.86;1597306;88;20149;-69
2022/09/05 12:17:26;;;;;;;;;;;;;;;25.73;21.40;99997.77;1598675;88;20093;-65
2022/09/05 12:19:56;;;;;;;;;;;;;;;25.59;21.55;99999.27;1598241;88;20199;-65
2022/09/05 12:22:35;;;;;;;;;;;;;;;25.42;21.91;99997.67;1601200;88;20272;-67
2022/09/05 12:25:21;;;;;;;;;;;;;;;25.27;22.02;99997.47;1596317;88;21181;-66
2022/09/05 12:27:55;;;;;;;;;;;;;;;25.14;22.19;99994.59;1605440;88;20122;-66
2022/09/05 12:30:23;;;;;;;;;;;;;;;24.95;22.44;99996.78;1598731;88;20104;-68
2022/09/05 12:32:56;;;;;;;;;;;;;;;24.73;22.69;100004.06;1598550;88;20133;-66
2022/09/05 12:35:41;;;;;;;;;;;;;;;24.58;22.79;99992.97;1600431;88;20407;-65
2022/09/05 12:38:23;;;;;;;;;;;;;;;24.43;22.94;99994.06;1599901;88;21246;-66
2022/09/05 12:40:59;;;;;;;;;;;;;;;24.29;23.23;99988.16;1599529;88;20125;-67
2022/09/05 12:43:26;;;;;;;;;;;;;;;24.21;23.34;99994.00;1599782;88;20232;-67
2022/09/05 12:46:08;;;;;;;;;;;;;;;24.12;23.32;99998.18;1598646;88;20105;-68
2022/09/05 12:48:50;;;;;;;;;;;;;;;24.07;23.25;99990.44;1601870;88;20470;-67
2022/09/05 12:51:18;;;;;;;;;;;;;;;24.01;23.70;99992.27;1600571;88;21166;-67
2022/09/05 12:53:48;;;;;;;;;;;;;;;23.94;23.73;99997.84;1599890;88;20138;-67
2022/09/05 12:56:18;;;;;;;;;;;;;;;23.89;23.96;99996.92;1599715;88;20109;-66
2022/09/05 12:58:48;;;;;;;;;;;;;;;23.76;24.20;99992.63;1601176;88;20463;-66
2022/09/05 13:01:18;;;;;;;;;;;;;;;23.68;24.24;99988.11;1598375;88;20183;-67
2022/09/05 13:03:47;;;;;;;;;;;;;;;23.50;24.45;99983.70;1602261;88;21173;-66
2022/09/05 13:06:37;;;;;;;;;;;;;;;23.42;24.94;99987.33;1598509;88;20414;-67
2022/09/05 13:09:09;;;;;;;;;;;;;;;23.42;24.85;99984.61;1599093;88;20431;-68
2022/09/05 13:12:02;;;;;;;;;;;;;;;23.39;24.75;99989.19;1599281;88;20464;-67
2022/09/05 13:14:28;;;;;;;;;;;;;;;23.29;24.56;99986.52;1595610;88;20135;-69
2022/09/05 13:16:55;;;;;;;;;;;;;;;23.11;24.81;99990.75;1599399;88;22059;-67
2022/09/05 13:19:49;;;;;;;;;;;;;;;22.99;24.94;99996.74;1600186;88;20159;-66
2022/09/05 13:22:13;;;;;;;;;;;;;;;22.90;25.17;99994.09;1599733;88;20194;-69
2022/09/05 13:24:40;;;;;;;;;;;;;;;22.79;25.03;99990.05;1601275;88;20111;-67
2022/09/05 13:27:13;;;;;;;;;;;;;;;22.74;25.03;99982.07;1599026;88;20081;-67
2022/09/05 13:29:52;;;;;;;;;;;;;;;22.68;24.88;99976.23;1598660;88;21904;-66
2022/09/05 13:32:18;;;;;;;;;;;;;;;22.65;24.98;99984.86;1598258;88;20129;-68
2022/09/05 13:34:54;;;;;;;;;;;;;;;22.58;25.40;99983.27;1601941;88;20167;-66
2022/09/05 13:37:21;;;;;;;;;;;;;;;22.50;25.94;99985.81;1602884;86;20085;-67
2022/09/05 13:39:51;;;;;;;;;;;;;;;22.47;26.26;99986.83;1601837;87;20154;-68
2022/09/05 13:42:21;;;;;;;;;;;;;;;22.49;26.46;99988.77;1598020;87;21144;-66
2022/09/05 13:44:58;;;;;;;;;;;;;;;22.55;26.44;99991.34;1602569;88;20164;-67
2022/09/05 13:47:37;;;;;;;;;;;;;;;22.60;26.50;99988.75;1599603;84;20097;-68